Latest Weather Observations for Port Augusta

IDS60801

Issued at 9:31 am CST Friday 29 July 2016 (issued every 30 minutes, with the page automatically refreshed every 10 minutes)

About weather observations | Map of weather stations | Latest weather observations for SA | Other Formats
Station Details ID: 018201 Name: PORT AUGUSTA AERO Lat: -32.51 Lon: 137.72 Height: 13.97 m
Data from the previous 72 hours. | See also: Recent months at Port Augusta
Date/Time
CST
Temp
°C
App
Temp
°C
Dew
Point
°C
Rel
Hum
%
Delta-T
°C
Wind Press
QNH
hPa
Press
MSL
hPa
Rain since
9am
mm
Dir  Spd
km/h
Gust
km/h
Spd
kts
Gust
kts
29/09:30am 9.9 7.1 5.3 73 2.1 NNW 9 13 5 7 1027.2 1027.2 0.0
29/09:00am 8.0 5.8 5.3 83 1.2 N 6 9 3 5 1027.5 1027.5 0.0
29/08:30am 5.2 3.9 4.3 94 0.4 CALM 0 0 0 0 1027.7 1027.7 0.0
29/08:00am 2.5 -0.3 1.9 96 0.2 NNW 6 9 3 5 1027.4 1027.4 0.0
29/07:30am 0.9 -2.8 0.2 95 0.3 W 9 11 5 6 1027.3 1027.3 0.0
29/07:00am 0.8 -3.3 0.1 95 0.3 W 11 13 6 7 1026.9 1026.9 0.0
29/06:30am 1.2 -2.0 0.5 95 0.3 W 7 9 4 5 1026.8 1026.8 0.0
29/06:00am 0.8 -2.5 0.1 95 0.3 W 7 9 4 5 1026.6 1026.6 0.0
29/05:30am 0.8 -3.3 0.1 95 0.3 W 11 13 6 7 1026.1 1026.1 0.0
29/05:00am 1.4 -1.8 0.7 95 0.3 W 7 9 4 5 1026.0 1026.0 0.0
29/04:30am 0.9 -2.2 0.2 95 0.3 WNW 6 7 3 4 1026.1 1026.1 0.0
29/04:00am 1.3 -2.3 0.6 95 0.3 NNW 9 11 5 6 1026.0 1026.0 0.0
29/03:30am 1.6 -1.4 0.7 94 0.3 NNW 6 9 3 5 1026.2 1026.2 0.0
29/03:00am 2.3 0.2 1.4 94 0.3 W 2 7 1 4 1026.3 1026.3 0.0
29/02:30am 1.3 -0.7 0.1 92 0.4 CALM 0 0 0 0 1026.5 1026.5 0.0
29/02:00am 2.6 0.1 1.6 93 0.4 W 4 6 2 3 1026.8 1026.8 0.0
29/01:30am 2.8 0.0 1.9 94 0.3 WNW 6 7 3 4 1026.8 1026.8 0.0
29/01:00am 2.8 -0.6 1.6 92 0.5 WNW 9 11 5 6 1026.8 1026.8 0.0
29/12:30am 3.4 1.1 2.5 94 0.4 SW 4 6 2 3 1026.8 1026.8 0.0
29/12:00am 3.1 -0.3 2.1 93 0.4 SW 9 13 5 7 1027.3 1027.3 0.0
 
Date/Time
CST
Temp
°C
App
Temp
°C
Dew
Point
°C
Rel
Hum
%
Delta-T
°C
Wind Press
QNH
hPa
Press
MSL
hPa
Rain since
9am
mm
Dir  Spd
km/h
Gust
km/h
Spd
kts
Gust
kts
28/11:30pm 3.1 -0.7 1.9 92 0.5 WSW 11 13 6 7 1027.3 1027.3 0.0
28/11:00pm 4.3 1.5 3.3 93 0.4 W 7 9 4 5 1027.3 1027.3 0.0
28/10:30pm 3.7 0.4 2.5 92 0.5 WSW 9 11 5 6 1027.3 1027.3 0.0
28/10:00pm 3.8 1.0 2.3 90 0.6 SW 6 7 3 4 1027.5 1027.5 0.0
28/09:30pm 4.9 2.0 2.8 86 0.8 ESE 7 9 4 5 1027.8 1027.8 0.0
28/09:00pm 5.7 3.0 3.7 87 0.8 SE 7 9 4 5 1027.9 1027.9 0.0
28/08:30pm 6.0 3.4 4.0 87 0.8 WSW 7 9 4 5 1028.0 1028.0 0.0
28/08:00pm 6.6 3.7 4.4 86 0.9 WSW 9 11 5 6 1027.9 1027.9 0.0
28/07:30pm 7.3 4.9 4.3 81 1.3 N 6 7 3 4 1028.0 1028.0 0.0
28/07:00pm 9.1 7.2 4.9 75 1.9 N 4 6 2 3 1027.9 1027.9 0.0
28/06:30pm 11.1 8.8 5.8 70 2.4 N 7 9 4 5 1027.7 1027.7 0.0
28/06:00pm 11.8 9.4 5.2 64 3.0 N 7 9 4 5 1027.5 1027.5 0.0
28/05:30pm 13.5 10.9 5.9 60 3.6 N 9 11 5 6 1027.4 1027.4 0.0
28/05:00pm 15.3 13.2 5.8 53 4.6 N 6 9 3 5 1027.2 1027.2 0.0
28/04:30pm 16.1 13.5 6.0 51 4.9 NW 9 13 5 7 1027.3 1027.3 0.0
28/04:00pm 17.0 15.7 6.2 49 5.3 NNW 2 9 1 5 1027.5 1027.5 0.0
28/03:30pm 15.7 12.7 5.9 52 4.7 NNW 11 17 6 9 1027.8 1027.8 0.0
28/03:00pm 16.3 12.5 5.6 49 5.1 WNW 15 20 8 11 1027.9 1027.9 0.0
28/02:30pm 15.4 11.9 5.6 52 4.6 NW 13 19 7 10 1028.1 1028.1 0.0
28/02:00pm 15.7 12.7 6.2 53 4.6 WNW 11 19 6 10 1028.5 1028.5 0.0
28/01:30pm 16.5 13.6 6.3 51 4.9 N 11 28 6 15 1028.5 1028.5 0.0
28/01:00pm 15.6 13.0 6.1 53 4.6 NNW 9 24 5 13 1029.2 1029.2 0.0
28/12:30pm 15.3 12.6 5.5 52 4.6 W 9 13 5 7 1029.6 1029.6 0.0
28/12:00pm 13.9 11.6 5.5 57 3.9 SSW 7 11 4 6 1030.1 1030.1 0.0
28/11:30am 14.0 11.4 5.9 58 3.8 NNE 9 15 5 8 1030.7 1030.7 0.0
28/11:00am 13.9 11.9 6.3 60 3.6 N 6 9 3 5 1031.3 1031.3 0.0
28/10:30am 13.0 10.8 6.1 63 3.2 NNW 7 9 4 5 1031.6 1031.6 0.0
28/10:00am 12.1 9.9 6.2 67 2.8 NW 7 9 4 5 1031.5 1031.5 0.0
28/09:30am 10.7 8.8 6.6 76 1.9 WNW 6 9 3 5 1031.7 1031.7 0.0
28/09:00am 8.3 6.2 6.6 89 0.8 WNW 7 9 4 5 1031.7 1031.7 0.2
28/08:30am 6.1 4.0 5.7 97 0.2 WSW 6 7 3 4 1031.4 1031.4 0.2
28/08:00am 2.9 -0.4 2.5 97 0.2 WSW 9 11 5 6 1031.2 1031.2 0.2
28/07:30am 0.5 -2.8 -0.1 96 0.2 WNW 7 9 4 5 1030.6 1030.6 0.2
28/07:00am 0.8 -2.3 0.2 96 0.2 NE 6 9 3 5 1030.2 1030.2 0.2
28/06:30am 0.4 -1.6 -0.3 95 0.2 CALM 0 0 0 0 1029.8 1029.8 0.2
28/06:15am 0.5 -1.5 -0.2 95 0.3 CALM 0 0 0 0 1029.7 1029.7 0.2
28/06:00am 0.7 -1.3 0.0 95 0.3 CALM 0 0 0 0 1029.6 1029.6 0.2
28/05:46am 1.1 -0.8 0.4 95 0.3 CALM 0 0 0 0 1029.6 1029.6 0.2
28/05:30am 0.9 -1.1 0.2 95 0.3 CALM 0 0 0 0 1029.6 1029.6 0.2
28/05:16am 1.0 -0.9 0.3 95 0.3 CALM 0 0 0 0 1029.5 1029.5 0.2
28/05:00am 1.4 -0.5 0.7 95 0.3 CALM 0 0 0 0 1029.6 1029.6 0.2
28/04:52am 1.1 -0.9 0.2 94 0.3 CALM 0 0 0 0 1029.6 1029.6 0.2
28/04:30am 1.6 -0.3 0.7 94 0.3 CALM 0 0 0 0 1029.4 1029.4 0.2
28/04:00am 1.6 -0.3 0.7 94 0.3 CALM 0 0 0 0 1029.4 1029.4 0.2
28/03:30am 2.0 0.1 0.8 92 0.4 CALM 0 0 0 0 1029.3 1029.3 0.2
28/03:00am 2.9 0.8 1.6 91 0.5 SE 2 6 1 3 1029.1 1029.1 0.0
28/02:30am 3.6 0.8 2.0 89 0.6 S 6 7 3 4 1028.9 1028.9 0.0
28/02:00am 3.4 0.0 2.1 91 0.5 SSW 9 11 5 6 1029.0 1029.0 0.0
28/01:30am 2.2 -1.0 1.0 92 0.4 SSW 7 9 4 5 1029.0 1029.0 0.0
28/01:00am 2.6 -0.5 1.6 93 0.4 WSW 7 7 4 4 1028.9 1028.9 0.0
28/12:30am 2.9 -0.1 1.9 93 0.4 WNW 7 7 4 4 1028.8 1028.8 0.0
28/12:00am 3.9 1.2 2.4 90 0.6 SW 6 7 3 4 1028.9 1028.9 0.0
 
Date/Time
CST
Temp
°C
App
Temp
°C
Dew
Point
°C
Rel
Hum
%
Delta-T
°C
Wind Press
QNH
hPa
Press
MSL
hPa
Rain since
9am
mm
Dir  Spd
km/h
Gust
km/h
Spd
kts
Gust
kts
27/11:30pm 3.9 1.0 2.7 92 0.5 SW 7 9 4 5 1029.0 1029.0 0.0
27/11:00pm 3.5 0.5 2.3 92 0.5 SW 7 9 4 5 1029.2 1029.2 0.0
27/10:30pm 3.8 0.9 2.6 92 0.5 SW 7 9 4 5 1029.0 1029.0 0.0
27/10:00pm 4.5 1.9 3.2 91 0.5 SSW 6 7 3 4 1029.0 1029.0 0.0
27/09:30pm 5.1 3.7 3.3 88 0.7 CALM 0 0 0 0 1029.1 1029.1 0.0
27/09:00pm 7.2 6.2 5.5 89 0.8 CALM 0 2 0 1 1029.2 1029.2 0.0
27/08:30pm 8.4 7.1 6.0 85 1.1 SSW 2 6 1 3 1029.0 1029.0 0.0
27/08:00pm 8.4 6.1 5.5 82 1.3 SSW 7 11 4 6 1029.0 1029.0 0.0
27/07:30pm 8.5 6.8 5.8 83 1.2 SSW 4 9 2 5 1028.9 1028.9 0.0
27/07:00pm 8.8 7.2 6.3 84 1.2 SSE 4 7 2 4 1028.6 1028.6 0.0
27/06:30pm 10.2 7.4 6.9 80 1.5 SE 11 13 6 7 1028.2 1028.2 0.0
27/06:00pm 10.9 7.4 7.2 78 1.8 SE 15 19 8 10 1028.0 1028.0 0.0
27/05:30pm 11.9 8.0 7.0 72 2.3 SE 17 28 9 15 1027.7 1027.7 0.0
27/05:00pm 12.8 7.5 6.6 66 3.0 SE 24 30 13 16 1027.2 1027.2 0.0
27/04:30pm 13.4 9.0 7.2 66 3.0 SE 20 28 11 15 1027.0 1027.0 0.0
27/04:00pm 13.9 9.3 6.7 62 3.5 SE 20 26 11 14 1026.9 1026.9 0.0
27/03:30pm 14.0 9.5 5.9 58 3.8 SE 19 24 10 13 1026.4 1026.4 0.0
27/03:00pm 14.3 9.8 6.2 58 3.9 SE 19 28 10 15 1026.0 1026.0 0.0
27/02:30pm 15.3 11.1 7.3 59 3.9 ESE 19 26 10 14 1025.7 1025.7 0.0
27/02:00pm 14.1 9.8 7.2 63 3.4 ESE 19 24 10 13 1025.7 1025.7 0.0
27/01:30pm 13.5 8.7 7.3 66 3.0 SE 22 30 12 16 1025.9 1025.9 0.0
27/01:00pm 13.9 9.0 7.0 63 3.4 SSE 22 33 12 18 1025.9 1025.9 0.0
27/12:30pm 14.6 9.4 5.4 54 4.3 SSW 22 30 12 16 1026.3 1026.3 0.0
27/12:00pm 14.8 8.9 5.9 55 4.2 S 26 35 14 19 1026.3 1026.3 0.0
27/11:30am 14.1 8.9 5.5 56 4.0 SSW 22 32 12 17 1026.2 1026.2 0.0
27/11:00am 13.1 7.9 7.1 67 2.9 SW 24 28 13 15 1026.3 1026.3 0.0
27/10:30am 12.2 7.4 7.3 72 2.4 SW 22 30 12 16 1026.4 1026.4 0.0
27/10:00am 11.7 7.3 7.2 74 2.2 SW 20 28 11 15 1026.0 1026.0 0.0
27/09:30am 11.6 6.8 7.3 75 2.1 SW 22 30 12 16 1025.2 1025.2 0.0
27/09:00am 10.6 5.9 7.7 82 1.4 SW 22 26 12 14 1024.5 1024.5 -
27/08:30am 9.5 4.6 7.1 85 1.1 SW 22 28 12 15 1023.8 1023.8 -
27/08:00am 8.5 4.0 7.0 90 0.7 SW 20 24 11 13 1023.5 1023.5 -
27/07:30am 7.9 3.3 6.5 91 0.6 SW 20 24 11 13 1023.1 1023.1 -
27/07:00am 8.0 3.1 6.8 92 0.6 SW 22 26 12 14 1022.5 1022.5 -
27/06:30am 8.3 3.8 7.1 92 0.6 SW 20 24 11 13 1022.0 1022.0 -
27/06:00am 9.0 4.8 7.3 89 0.8 SW 19 24 10 13 1021.5 1021.5 -
27/05:30am 9.0 6.0 7.6 91 0.7 WSW 13 17 7 9 1021.1 1021.1 -
27/05:00am 7.9 4.0 7.0 94 0.4 W 17 19 9 10 1020.8 1020.8 -
27/04:30am 8.4 5.7 7.3 93 0.5 WNW 11 11 6 6 1020.5 1020.5 -
27/04:00am 9.5 8.7 8.1 91 0.7 SW 2 6 1 3 1020.3 1020.3 -
27/03:35am 9.5 7.4 8.1 91 0.7 WSW 9 13 5 7 1020.4 1020.4 -
27/03:30am 9.5 7.0 8.1 91 0.7 WSW 11 15 6 8 1020.2 1020.2 -
27/03:16am 10.0 6.0 8.4 90 0.8 WSW 19 22 10 12 1020.2 1020.2 -
27/03:00am 10.5 6.3 8.4 87 1.0 SW 20 30 11 16 1020.3 1020.3 1.0
27/02:30am 10.1 7.7 8.5 90 0.8 WSW 11 13 6 7 1020.0 1020.0 -
27/02:00am 10.5 8.1 8.6 88 0.9 W 11 17 6 9 1019.8 1019.8 -
27/01:30am 10.2 6.7 8.6 90 0.8 W 17 20 9 11 1019.5 1019.5 -
27/01:00am 11.4 7.1 9.3 87 1.1 W 22 28 12 15 1019.5 1019.5 -
27/12:30am 11.3 8.5 9.9 91 0.7 WNW 15 20 8 11 1019.5 1019.5 -
27/12:00am 11.4 9.7 9.8 90 0.8 WNW 9 11 5 6 1019.3 1019.3 -
 
Date/Time
CST
Temp
°C
App
Temp
°C
Dew
Point
°C
Rel
Hum
%
Delta-T
°C
Wind Press
QNH
hPa
Press
MSL
hPa
Rain since
9am
mm
Dir  Spd
km/h
Gust
km/h
Spd
kts
Gust
kts
26/11:31pm 11.5 8.0 10.2 92 0.7 W 19 28 10 15 1018.8 1018.8 -
26/11:30pm 11.5 8.0 10.1 91 0.7 W 19 28 10 15 1018.8 1018.8 -
26/11:22pm 11.4 8.7 10.3 93 0.6 WNW 15 28 8 15 1018.7 1018.7 -
26/11:00pm 11.6 8.1 10.3 92 0.7 W 19 26 10 14 1018.4 1018.4 -
26/10:56pm 11.6 7.9 10.2 91 0.7 W 20 28 11 15 1018.4 1018.4 -
26/10:53pm 11.8 8.1 10.2 90 0.8 W 20 30 11 16 1018.4 1018.4 -
26/10:31pm 11.5 7.8 10.2 92 0.7 NW 20 28 11 15 1017.9 1017.9 -
26/10:30pm 11.5 7.8 10.2 92 0.7 NW 20 28 11 15 1017.9 1017.9 -
26/10:15pm 11.7 6.8 10.1 90 0.8 NW 26 35 14 19 1017.9 1017.9 -
26/10:00pm 11.9 7.0 9.8 87 1.1 NW 26 35 14 19 1017.7 1017.7 -
26/09:55pm 11.7 7.2 9.9 89 0.9 NW 24 32 13 17 1017.7 1017.7 -
26/09:43pm 11.8 6.5 10.0 89 0.9 WNW 28 41 15 22 1018.0 1018.0 -
26/09:37pm 12.0 8.2 9.7 86 1.2 WNW 20 35 11 19 1017.9 1017.9 -
26/09:30pm 11.7 7.6 10.1 90 0.8 WNW 22 30 12 16 1017.8 1017.8 -
26/09:18pm 12.0 5.8 9.9 87 1.1 WNW 33 44 18 24 1017.7 1017.7 -
26/09:00pm 13.8 7.7 8.2 69 2.8 WNW 30 46 16 25 1017.4 1017.4 0.0
26/08:42pm 13.9 8.1 8.1 68 2.9 WNW 28 46 15 25 1017.3 1017.3 -
26/08:30pm 14.0 8.3 8.2 68 2.9 NW 28 35 15 19 1017.3 1017.3 -
26/08:00pm 14.2 8.0 7.7 65 3.2 WNW 30 39 16 21 1016.9 1016.9 -
26/07:30pm 14.2 8.3 7.3 63 3.4 WNW 28 41 15 22 1016.5 1016.5 -
26/07:02pm 14.0 8.2 7.8 66 3.1 WNW 28 48 15 26 1016.5 1016.5 -
26/07:00pm 14.1 8.9 7.4 64 3.3 WNW 24 48 13 26 1016.4 1016.4 -
26/06:30pm 13.7 9.9 7.7 67 3.0 NW 17 22 9 12 1016.0 1016.0 -
26/06:00pm 14.2 7.5 7.3 63 3.4 WNW 32 41 17 22 1015.7 1015.7 -
26/05:30pm 13.6 7.4 8.0 69 2.8 W 30 41 16 22 1015.9 1015.9 -
26/05:03pm 14.9 7.3 6.0 55 4.3 WNW 35 54 19 29 1015.8 1015.8 -
26/05:00pm 15.1 7.9 5.9 54 4.4 WNW 33 48 18 26 1015.7 1015.7 -
26/04:40pm 15.6 8.4 4.9 49 5.0 WNW 32 50 17 27 1015.6 1015.6 -
26/04:30pm 15.5 8.4 5.4 51 4.8 WNW 32 44 17 24 1015.4 1015.4 -
26/04:00pm 15.2 9.3 7.7 61 3.7 NW 28 39 15 21 1015.5 1015.5 -
26/03:30pm 13.9 7.4 8.3 69 2.8 WSW 32 43 17 23 1016.1 1016.1 -
26/03:00pm 14.9 8.3 7.7 62 3.6 WNW 32 41 17 22 1015.9 1015.9 -
26/02:30pm 15.7 8.8 7.2 57 4.2 WNW 33 44 18 24 1016.0 1016.0 -
26/02:00pm 14.3 7.8 8.3 67 3.0 W 32 41 17 22 1016.4 1016.4 -
26/01:30pm 13.4 8.9 10.2 81 1.7 WNW 24 32 13 17 1016.9 1016.9 -
26/01:00pm 14.9 8.3 7.7 62 3.6 NW 32 41 17 22 1017.0 1017.0 -
26/12:30pm 14.7 8.2 8.0 64 3.3 NNW 32 41 17 22 1017.7 1017.7 -
26/12:00pm 15.4 9.6 7.9 61 3.7 NNW 28 41 15 22 1018.0 1018.0 -
26/11:30am 14.3 9.0 8.3 67 3.0 NNW 26 33 14 18 1018.7 1018.7 -
26/11:00am 14.3 9.6 9.1 71 2.6 NW 24 35 13 19 1019.0 1019.0 -
26/10:30am 12.9 9.1 9.7 81 1.6 NNW 20 26 11 14 1019.3 1019.3 -

Other Formats:

Comma delimited format used in spreadsheet applications
http://www.bom.gov.au/fwo/IDS60801/IDS60801.95666.axf

JavaScript Object Notation format (JSON) in row-major order
http://www.bom.gov.au/fwo/IDS60801/IDS60801.95666.json